Logo

Informe meteorológico de datos medios para el día en curso

  • Compartir en Google Plus
  • Compartir en Twitter
  • Compartir en Facebook
Nº de accesos al conjunto de datos: 211

Previsualización

API de datos Código HTML

_id codest paraje municipio dia hora tmin tmax tmed hrmin hrmax hrmed prec radmax radmed vvmed vvmax
1 AL31 Lebor Totana 2021-06-16T00:00:00 00:00 23.1 23.7 23.4 52.3 56.0 54.5 0 0 0 1.2 3.7
2 AL41 La Calavera Alhama 2021-06-16T00:00:00 00:00 22.9 24.4 23.7 46.6 49.5 48.0 0 0 0 2.3 5.2
3 AL52 Los Palomos Librilla 2021-06-16T00:00:00 00:00 21.4 22.4 21.9 63.0 67.1 65.0 0 0 0 0.9 2.7
4 CA21 Corvera Murcia 2021-06-16T00:00:00 00:00 22.9 24.6 23.9 51.0 57.1 53.3 0 0 0 1.9 3.4
5 CA42 Balsapintada Fuente Alamo 2021-06-16T00:00:00 00:00 24.0 24.4 24.2 52.9 54.3 53.7 0 0 0 1.0 3.0
6 CA52 La Aljorra Cartagena 2021-06-16T00:00:00 00:00 23.7 24.0 23.8 56.5 59.5 58.0 0 0 0 2.0 3.2
7 CA73 Los Belones Cartagena 2021-06-16T00:00:00 00:00 23.5 23.9 23.7 71.8 73.9 72.7 0 0 0 2.4 5.8
8 CA91 Campillo Abajo Fuente Alamo 2021-06-16T00:00:00 00:00 22.2 24.0 23.3 44.5 54.5 48.3 0 0 0 0.5 2.5
9 CI22 Estación de Blanca Blanca 2021-06-16T00:00:00 00:00 20.9 23.1 21.7 42.9 56.9 51.9 0 0 0 0.5 2.7
10 CI32 Estación Ulea Ulea 2021-06-16T00:00:00 00:00 20.9 22.1 21.3 57.8 65.8 62.5 0 0 0 0.8 3.0
11 CI42 La Carrichosa Cieza 2021-06-16T00:00:00 00:00 19.9 21.2 20.6 64.4 72.0 68.4 0 0 0 0.3 1.9
12 CI52 Rotas Calasparra 2021-06-16T00:00:00 00:00 20.7 22.4 21.7 52.3 60.1 55.4 0 0 0 0.5 2.1
13 CI71 Llano de las olivericas Calasparra 2021-06-16T00:00:00 00:00 20.2 21.3 20.7 60.7 66.8 63.9 0 0 0 0.5 1.6
14 CR42 Venta Ulea Moratalla 2021-06-16T00:00:00 00:00 19.0 20.9 19.7 61.8 69.8 66.0 0 0 0 1.0 2.3
15 CR52 La Torrecica Cehegin 2021-06-16T00:00:00 00:00 18.7 21.2 20.3 50.4 60.7 54.7 0 0 0 0.3 1.6
16 JU42 Las Moratillas Yecla 2021-06-16T00:00:00 00:00 20.0 21.4 20.9 57.0 67.1 60.4 0 0 0 0.6 2.0
17 JU62 Miraflores Jumilla 2021-06-16T00:00:00 00:00 19.6 20.6 20.1 56.2 62.5 59.8 0 0 0 0.5 2.0
18 JU71 Las Encebras Jumilla 2021-06-16T00:00:00 00:00 20.0 21.1 20.6 55.0 60.3 57.4 0 0 0 0.8 2.4
19 JU81 Roman Jumilla 2021-06-16T00:00:00 00:00 19.7 21.2 20.6 51.4 62.5 55.1 0 0 0 0.6 2.3
20 LO11 Purias Lorca 2021-06-16T00:00:00 00:00 22.6 23.4 23.1 52.2 56.5 53.9 0 0 0 1.4 5.7
21 LO21 Pozohiguera Lorca 2021-06-16T00:00:00 00:00 21.7 23.0 22.5 51.1 58.1 54.1 0 0 0 1.4 4.7
22 LO31 La Pilica Aguilas 2021-06-16T00:00:00 00:00 27.8 28.7 28.3 33.8 37.1 34.9 0 0 0 1.3 4.1
23 LO41 La Paca Lorca 2021-06-16T00:00:00 00:00 19.2 19.9 19.6 54.1 56.2 55.1 0 0 0 0.9 2.2
24 LO51 Tebar Aguilas 2021-06-16T00:00:00 00:00 24.8 26.2 25.6 35.1 44.5 37.9 0 0 0 2.0 7.2
25 LO61 El Esparragal Puerto Lumbreras 2021-06-16T00:00:00 00:00 21.9 23.5 22.7 43.8 50.9 47.4 0 0 0 1.0 4.5
26 ML21 Mula Mula 2021-06-16T00:00:00 00:00 20.5 21.6 21.1 53.4 60.2 55.7 0 0 0 0.6 3.0
27 MO12 Pilica Torres de Cotillas 2021-06-16T00:00:00 00:00 21.8 23.4 22.7 57.3 65.9 61.5 0 0 0 1.0 2.3
28 MO22 Campotejar Molina Segura 2021-06-16T00:00:00 00:00 21.2 23.0 21.7 49.2 59.8 57.6 0 0 0 0.8 3.1
29 MO31 El Llano Molina Segura 2021-06-16T00:00:00 00:00 21.6 22.7 22.0 60.5 71.2 66.8 0 0 0 0.2 2.3
30 MO51 Charco Taray Fortuna 2021-06-16T00:00:00 00:00 21.6 22.1 21.8 59.0 62.2 61.2 0 0 0 0.8 2.6
31 MO62 Loma del Aire Ojós 2021-06-16T00:00:00 00:00 23.8 25.1 24.7 54.3 58.8 56.3 0 0 0 0.7 2.1
32 MU21 Los Alamos Beniel 2021-06-16T00:00:00 00:00 20.9 22.6 21.5 64.1 72.0 69.1 0 0 0 0.6 2.6
33 MU31 La Vereda Murcia 2021-06-16T00:00:00 00:00 22.4 23.9 22.9 57.8 64.8 62.3 0 0 0 1.1 3.5
34 MU52 Cabezo Plata Murcia 2021-06-16T00:00:00 00:00 21.4 23.4 22.3 61.5 69.0 65.7 0 0 0 1.2 3.5
35 MU62 La Alberca Murcia 2021-06-16T00:00:00 00:00 23.7 24.4 24.0 48.4 51.6 50.2 0 0 0 0.6 2.2
36 TP22 Santiago de la Ribera San Javier 2021-06-16T00:00:00 00:00 23.9 24.6 24.4 54.1 56.5 54.7 0 0 0 1.5 3.7
37 TP52 El Mirador San Javier 2021-06-16T00:00:00 00:00 23.6 24.2 24.0 54.2 55.7 54.7 0 0 0 1.8 4.0

Propiedades del conjunto de datos

Título
Informe meteorológico de datos medios para el día en curso
Descripción

Información sobre los datos meteorológicos del día en curso. Se incluye la información por cada una de las estaciones meteorológicas de la red SIAM gestionada por el Instituto Murciano de Investigación y Desarrollo Agrario y Alimentario (IMIDA). Los datos recogidos por las estaciones son validados al día siguiente de la toma de datos.

Categoría
Palabra clave / etiqueta
Publicador
Cobertura geográfica
Región de Murcia
Idioma
Español
Fecha de primera publicación
15/05/2018
Fecha de última modificación
16/06/2021
Licencia
Frecuencia de actualización
Horaria (cada hora)
Diccionario de datos
La información se estructura en las siguientes columnas: Código de estación meteorológica, Nombre del paraje donde está ubicada la estación, Municipio donde está ubicada la estación, día de toma de datos, hora de toma de datos, Temperatura mínima (ºC), Temperatura máxima (ºC), Temperatura media (ºC), Humedad Relativa mínima (%), Humedad Relativa máxima (%),Humedad Relativa media (%),Precipitación (mm), radiación máxima (w/m2), radiación media (w/m2), Velocidad del Viento media (m/seg), Velocidad del Viento máxima (m/seg), Evapotranspiración máxima de un día (mm).
comments powered by Disqus